Webcam Richtung Westen

Webcam27

Webcam Richtung Norden

Webcam36

Webcam Richtung Osten

Webcam09

Wetter(Würzburg):
300000Z AUTO 14003G04KT 46KM BKN060 BKN250 14/12 Q1014
		
Fri 30.07.2021, 00:00 UTC

Sichtweite bis zu 46 km
Wind aus 140° mit 03kt, in Böen bis zu 04kt
unterbrochene Wolkendecke (5-7 Achtel) bei 6000 Fuß
unterbrochene Wolkendecke (5-7 Achtel) bei 25000 Fuß
Temperatur: 14 °C
Taupunkt: 12 °C
QNH: 1014 hPa
                         Heute        Morgen
                         30.07        31.07
--------------------------------------------
Beginn der Dämmerung     03:09        03:10
Sonnenaufgang            03:47        03:49
Sonnenuntergang          19:06        19:04
Ende der Dämmerung       19:45        19:43

Alle Zeiten in UTC